createdAt,value
2023-01-29T00:00:48.180Z,61.75
2023-01-29T00:03:42.025Z,61.82
2023-01-29T00:06:15.715Z,61.94
2023-01-29T00:08:50.040Z,61.87
2023-01-29T00:11:24.497Z,61.39
2023-01-29T00:13:58.356Z,61.15
2023-01-29T00:16:31.928Z,60.95
2023-01-29T00:19:07.199Z,61.26
2023-01-29T00:21:41.023Z,61.32
2023-01-29T00:24:15.102Z,61.36
2023-01-29T00:26:50.419Z,61.53
2023-01-29T00:29:24.055Z,61.47
2023-01-29T00:31:58.512Z,61.43
2023-01-29T00:34:32.411Z,61.62
2023-01-29T00:37:06.827Z,61.60
2023-01-29T00:39:47.889Z,61.58
2023-01-29T00:42:40.061Z,61.45
2023-01-29T00:45:14.814Z,61.65
2023-01-29T00:47:48.841Z,61.65
2023-01-29T00:50:22.635Z,61.72
2023-01-29T00:52:55.999Z,61.57
2023-01-29T00:55:29.977Z,61.35
2023-01-29T00:58:04.092Z,61.18
2023-01-29T01:00:37.560Z,61.22
2023-01-29T01:03:11.879Z,61.33
2023-01-29T01:05:48.219Z,61.05
2023-01-29T01:08:39.029Z,61.22
2023-01-29T01:11:13.276Z,61.37
2023-01-29T01:13:47.665Z,61.49
2023-01-29T01:16:21.654Z,61.56
2023-01-29T01:18:55.321Z,61.60
2023-01-29T01:21:29.281Z,61.30
2023-01-29T01:24:06.240Z,61.34
2023-01-29T01:26:39.800Z,61.50
2023-01-29T01:29:13.464Z,61.46
2023-01-29T01:31:47.282Z,61.27
2023-01-29T01:34:22.528Z,61.07
2023-01-29T01:36:56.736Z,61.19
2023-01-29T01:39:30.881Z,61.24
2023-01-29T01:42:05.004Z,61.34
2023-01-29T01:45:01.602Z,61.41
2023-01-29T01:47:44.011Z,61.57
2023-01-29T01:50:21.596Z,61.44
2023-01-29T01:52:59.028Z,61.75
2023-01-29T01:55:35.957Z,61.81
2023-01-29T01:58:15.475Z,61.82
2023-01-29T02:00:49.547Z,61.82
2023-01-29T02:03:42.063Z,61.76
2023-01-29T02:06:33.584Z,61.96
2023-01-29T02:09:30.234Z,62.12
2023-01-29T02:12:06.283Z,62.06
2023-01-29T02:14:41.631Z,62.06
2023-01-29T02:17:16.984Z,62.06
2023-01-29T02:19:58.442Z,62.11
2023-01-29T02:22:48.850Z,62.18
2023-01-29T02:25:58.439Z,62.12
2023-01-29T02:28:49.354Z,62.36
2023-01-29T02:31:31.217Z,62.48
2023-01-29T02:34:14.118Z,62.43
2023-01-29T02:36:53.253Z,62.37
2023-01-29T02:39:42.484Z,62.54
2023-01-29T02:42:27.522Z,62.43
2023-01-29T02:45:08.198Z,62.61
2023-01-29T02:47:49.335Z,62.50
2023-01-29T02:50:27.970Z,62.63
2023-01-29T02:53:08.316Z,62.61
2023-01-29T02:55:46.503Z,62.70
2023-01-29T02:58:22.535Z,62.73
2023-01-29T03:01:00.606Z,62.58
2023-01-29T03:03:40.379Z,62.71
2023-01-29T03:06:22.762Z,62.69
2023-01-29T03:09:00.528Z,62.63
2023-01-29T03:11:38.749Z,62.71
2023-01-29T03:14:17.662Z,62.73
2023-01-29T03:16:55.136Z,62.85
2023-01-29T03:19:39.755Z,62.78
2023-01-29T03:22:22.322Z,62.91
2023-01-29T03:25:16.206Z,62.94
2023-01-29T03:28:12.793Z,62.92
2023-01-29T03:31:11.168Z,63.07
2023-01-29T03:33:54.328Z,63.03
2023-01-29T03:36:38.603Z,63.01
2023-01-29T03:39:13.759Z,63.08
2023-01-29T03:41:54.805Z,62.96
2023-01-29T03:44:38.019Z,62.96
2023-01-29T03:47:21.982Z,63.10
2023-01-29T03:50:03.758Z,63.13
2023-01-29T03:52:47.778Z,63.17
2023-01-29T03:55:27.267Z,63.21
2023-01-29T03:58:06.974Z,63.18
2023-01-29T04:00:46.256Z,63.08
2023-01-29T04:03:25.237Z,63.14
2023-01-29T04:06:10.201Z,63.25
2023-01-29T04:08:55.129Z,63.32
2023-01-29T04:11:31.161Z,63.33
2023-01-29T04:14:04.814Z,63.23
2023-01-29T04:16:42.599Z,63.31
2023-01-29T04:19:43.053Z,63.33
2023-01-29T04:22:22.333Z,63.40
2023-01-29T04:25:02.976Z,63.49
2023-01-29T04:27:45.815Z,63.46
2023-01-29T04:30:30.484Z,63.25
2023-01-29T04:33:20.121Z,63.39
2023-01-29T04:36:18.191Z,63.28
2023-01-29T04:39:04.269Z,63.46
2023-01-29T04:41:44.371Z,63.40
2023-01-29T04:44:23.715Z,63.49
2023-01-29T04:47:10.255Z,63.57
2023-01-29T04:49:48.895Z,63.47
2023-01-29T04:52:31.194Z,63.51
2023-01-29T04:55:11.323Z,63.53
2023-01-29T04:57:53.426Z,63.42
2023-01-29T05:00:32.651Z,63.45
2023-01-29T05:03:10.120Z,63.62
2023-01-29T05:05:47.200Z,63.55
2023-01-29T05:08:24.425Z,63.52
2023-01-29T05:11:00.771Z,63.57
2023-01-29T05:13:38.510Z,63.58
2023-01-29T05:16:18.623Z,63.64
2023-01-29T05:18:53.207Z,63.73
2023-01-29T05:21:28.648Z,63.68
2023-01-29T05:24:14.088Z,63.66
2023-01-29T05:27:06.592Z,63.79
2023-01-29T05:29:42.763Z,63.62
2023-01-29T05:32:17.174Z,63.50
2023-01-29T05:34:51.160Z,63.61
2023-01-29T05:37:24.729Z,63.53
2023-01-29T05:39:58.709Z,63.39
2023-01-29T05:42:32.568Z,63.60
2023-01-29T05:45:06.416Z,63.65
2023-01-29T05:47:40.013Z,63.62
2023-01-29T05:50:15.614Z,63.68
2023-01-29T05:52:49.552Z,63.64
2023-01-29T05:55:23.339Z,63.70
2023-01-29T05:57:56.964Z,63.63
2023-01-29T06:00:31.122Z,63.62
2023-01-29T06:03:05.141Z,63.67
2023-01-29T06:05:41.303Z,63.78
2023-01-29T06:08:15.196Z,63.67
2023-01-29T06:10:49.018Z,63.72
2023-01-29T06:13:23.789Z,63.78
2023-01-29T06:15:57.640Z,63.87
2023-01-29T06:18:31.452Z,63.97
2023-01-29T06:21:07.637Z,63.97
2023-01-29T06:23:42.496Z,63.94
2023-01-29T06:26:17.850Z,63.89
2023-01-29T06:28:53.939Z,63.78
2023-01-29T06:31:38.218Z,63.91
2023-01-29T06:34:16.603Z,64.01
2023-01-29T06:36:50.913Z,63.90
2023-01-29T06:39:24.651Z,64.04
2023-01-29T06:41:58.261Z,63.94
2023-01-29T06:44:32.304Z,63.91
2023-01-29T06:47:05.945Z,63.84
2023-01-29T06:49:39.235Z,63.76
2023-01-29T06:52:12.919Z,63.69
2023-01-29T06:54:46.517Z,63.61
2023-01-29T06:57:21.004Z,63.58
2023-01-29T06:59:54.814Z,63.57
2023-01-29T07:02:28.287Z,63.62
2023-01-29T07:05:02.136Z,63.56
2023-01-29T07:07:38.790Z,63.59
2023-01-29T07:10:13.808Z,63.62
2023-01-29T07:12:47.766Z,63.55
2023-01-29T07:15:22.433Z,63.59
2023-01-29T07:18:04.907Z,63.69
2023-01-29T07:20:39.607Z,63.62
2023-01-29T07:23:15.355Z,63.56
2023-01-29T07:25:50.159Z,63.48
2023-01-29T07:28:23.677Z,63.29
2023-01-29T07:31:00.854Z,63.14
2023-01-29T07:33:34.681Z,63.15
2023-01-29T07:36:11.629Z,63.28
2023-01-29T07:38:45.569Z,63.24
2023-01-29T07:41:19.664Z,63.11
2023-01-29T07:43:53.331Z,63.11
2023-01-29T07:46:27.095Z,63.12
2023-01-29T07:49:01.567Z,63.10
2023-01-29T07:51:35.524Z,63.07
2023-01-29T07:54:09.545Z,63.16
2023-01-29T07:56:43.225Z,62.90
2023-01-29T07:59:17.525Z,62.45
2023-01-29T08:01:51.173Z,62.61
2023-01-29T08:04:25.451Z,62.41
2023-01-29T08:06:58.923Z,62.32
2023-01-29T08:09:36.418Z,62.32
2023-01-29T08:12:10.660Z,62.38
2023-01-29T08:14:46.091Z,62.15
2023-01-29T08:17:19.627Z,62.04
2023-01-29T08:19:53.669Z,62.23
2023-01-29T08:22:27.377Z,62.26
2023-01-29T08:25:08.228Z,62.35
2023-01-29T08:27:43.463Z,62.54
2023-01-29T08:30:18.674Z,62.15
2023-01-29T08:32:52.332Z,62.03
2023-01-29T08:35:26.972Z,61.98
2023-01-29T08:38:21.507Z,62.07
2023-01-29T08:40:55.338Z,61.96
2023-01-29T08:43:29.138Z,61.78
2023-01-29T08:46:02.767Z,61.66
2023-01-29T08:48:39.965Z,61.61
2023-01-29T08:51:14.610Z,61.70
2023-01-29T08:53:56.883Z,61.65
2023-01-29T08:56:31.021Z,61.61
2023-01-29T08:59:04.685Z,61.33
2023-01-29T09:01:38.592Z,61.58
2023-01-29T09:04:12.275Z,61.63
2023-01-29T09:06:45.654Z,61.69
2023-01-29T09:09:20.015Z,61.32
2023-01-29T09:11:53.519Z,61.48
2023-01-29T09:14:28.047Z,61.61
2023-01-29T09:17:01.916Z,61.72
2023-01-29T09:19:35.530Z,61.65
2023-01-29T09:22:10.982Z,60.99
2023-01-29T09:24:46.166Z,61.13
2023-01-29T09:27:19.782Z,61.32
2023-01-29T09:29:53.265Z,61.12
2023-01-29T09:32:52.161Z,60.96
2023-01-29T09:35:21.754Z,60.74
2023-01-29T09:37:56.051Z,60.89
2023-01-29T09:40:40.463Z,60.95
2023-01-29T09:43:19.111Z,61.14
2023-01-29T09:45:55.738Z,60.87
2023-01-29T09:48:33.752Z,61.08
2023-01-29T09:51:15.440Z,61.53
2023-01-29T09:53:53.662Z,61.89
2023-01-29T09:56:29.341Z,61.55
2023-01-29T09:59:03.251Z,61.44
2023-01-29T10:01:47.132Z,61.17
2023-01-29T10:04:46.011Z,60.84
2023-01-29T10:08:01.819Z,60.53
2023-01-29T10:10:48.705Z,60.96
2023-01-29T10:13:34.600Z,61.43
2023-01-29T10:16:30.870Z,61.35
2023-01-29T10:19:32.285Z,61.56
2023-01-29T10:22:36.459Z,61.78
2023-01-29T10:25:15.942Z,61.89
2023-01-29T10:27:53.940Z,62.48
2023-01-29T10:30:33.880Z,62.77
2023-01-29T10:33:14.572Z,63.30
2023-01-29T10:35:53.797Z,63.51
2023-01-29T10:38:45.824Z,63.85
2023-01-29T10:41:45.396Z,64.22
2023-01-29T10:44:29.390Z,64.24
2023-01-29T10:47:17.237Z,64.36
2023-01-29T10:50:13.586Z,64.35
2023-01-29T10:53:01.265Z,64.30
2023-01-29T10:55:48.936Z,64.59
2023-01-29T10:58:33.578Z,64.27
2023-01-29T11:01:07.713Z,64.37
2023-01-29T11:03:42.092Z,64.69
2023-01-29T11:06:23.984Z,64.80
2023-01-29T11:09:03.296Z,64.90
2023-01-29T11:11:43.128Z,64.90
2023-01-29T11:14:23.857Z,65.03
2023-01-29T11:16:58.632Z,65.24
2023-01-29T11:19:43.758Z,65.56
2023-01-29T11:22:22.664Z,65.65
2023-01-29T11:25:17.717Z,65.47
2023-01-29T11:27:54.549Z,65.52
2023-01-29T11:30:32.259Z,65.32
2023-01-29T11:33:19.200Z,65.21
2023-01-29T11:35:54.205Z,65.17
2023-01-29T11:38:30.177Z,65.14
2023-01-29T11:41:09.651Z,65.05
2023-01-29T11:43:44.338Z,65.09
2023-01-29T11:46:20.046Z,65.14
2023-01-29T11:48:59.228Z,65.27
2023-01-29T11:51:43.432Z,65.01
2023-01-29T11:54:21.447Z,64.94
2023-01-29T11:56:56.012Z,65.11
2023-01-29T11:59:44.789Z,65.19
2023-01-29T12:02:31.142Z,65.30
2023-01-29T12:05:15.465Z,65.23
2023-01-29T12:07:55.058Z,65.43
2023-01-29T12:10:38.384Z,65.59
2023-01-29T12:13:27.643Z,65.61
2023-01-29T12:16:20.857Z,65.71
2023-01-29T12:18:58.833Z,65.77
2023-01-29T12:21:39.326Z,65.79
2023-01-29T12:24:24.907Z,65.83
2023-01-29T12:27:08.343Z,65.97
2023-01-29T12:29:49.382Z,66.13
2023-01-29T12:32:34.787Z,66.15
2023-01-29T12:35:17.239Z,66.14
2023-01-29T12:37:59.500Z,66.19
2023-01-29T12:40:42.405Z,66.05
2023-01-29T12:43:20.665Z,66.23
2023-01-29T12:45:59.805Z,66.40
2023-01-29T12:48:38.874Z,66.37
2023-01-29T12:51:18.144Z,66.41
2023-01-29T12:53:58.764Z,66.51
2023-01-29T12:56:37.328Z,66.60
2023-01-29T12:59:21.637Z,66.66
2023-01-29T13:02:00.142Z,66.84
2023-01-29T13:04:42.919Z,66.98
2023-01-29T13:07:24.068Z,66.93
2023-01-29T13:10:06.630Z,67.19
2023-01-29T13:12:51.590Z,67.36
2023-01-29T13:15:31.833Z,67.63
2023-01-29T13:18:35.309Z,68.08
2023-01-29T13:21:13.812Z,68.60
2023-01-29T13:23:56.605Z,69.09
2023-01-29T13:26:31.245Z,69.27
2023-01-29T13:29:05.908Z,69.54
2023-01-29T13:31:49.471Z,70.05
2023-01-29T13:34:28.830Z,70.17
2023-01-29T13:37:11.834Z,70.19
2023-01-29T13:39:52.462Z,70.35
2023-01-29T13:42:41.867Z,70.70
2023-01-29T13:45:25.471Z,70.71
2023-01-29T13:48:23.444Z,70.99
2023-01-29T13:51:04.070Z,71.13
2023-01-29T13:53:42.987Z,71.21
2023-01-29T13:56:59.478Z,71.48
2023-01-29T13:59:55.666Z,71.49
2023-01-29T14:02:31.878Z,71.43
2023-01-29T14:05:45.993Z,71.75
2023-01-29T14:08:42.457Z,71.62
2023-01-29T14:11:38.126Z,71.67
2023-01-29T14:14:42.868Z,71.71
2023-01-29T14:17:19.173Z,71.87
2023-01-29T14:19:55.057Z,71.70
2023-01-29T14:22:33.889Z,71.66
2023-01-29T14:25:23.547Z,71.49
2023-01-29T14:27:58.496Z,71.48
2023-01-29T14:30:37.561Z,71.59
2023-01-29T14:33:30.393Z,71.47
2023-01-29T14:36:14.020Z,71.28
2023-01-29T14:38:57.430Z,71.22
2023-01-29T14:41:37.774Z,71.38
2023-01-29T14:44:48.229Z,71.51
2023-01-29T14:48:07.785Z,71.51
2023-01-29T14:50:59.651Z,71.56
2023-01-29T14:53:47.695Z,71.57
2023-01-29T14:56:29.295Z,71.80
2023-01-29T14:59:18.163Z,71.93
2023-01-29T15:01:58.169Z,72.04
2023-01-29T15:04:46.377Z,72.12
2023-01-29T15:07:32.341Z,72.22
2023-01-29T15:10:23.059Z,72.31
2023-01-29T15:13:03.809Z,72.34
2023-01-29T15:15:45.343Z,72.43
2023-01-29T15:18:22.748Z,72.63
2023-01-29T15:21:08.903Z,72.59
2023-01-29T15:23:45.015Z,72.59
2023-01-29T15:26:26.993Z,72.79
2023-01-29T15:29:06.327Z,72.77
2023-01-29T15:31:45.178Z,72.89
2023-01-29T15:34:22.196Z,72.85
2023-01-29T15:36:57.041Z,73.13
2023-01-29T15:39:32.612Z,73.12
2023-01-29T15:42:24.225Z,73.42
2023-01-29T15:45:03.662Z,73.51
2023-01-29T15:47:40.833Z,73.80
2023-01-29T15:50:17.481Z,73.87
2023-01-29T15:52:56.912Z,74.21
2023-01-29T15:55:34.956Z,74.28
2023-01-29T15:58:14.789Z,74.46
2023-01-29T16:00:59.084Z,74.66
2023-01-29T16:03:39.921Z,74.90
2023-01-29T16:06:19.159Z,74.84
2023-01-29T16:08:56.315Z,75.06
2023-01-29T16:11:34.231Z,75.02
2023-01-29T16:14:11.192Z,74.87
2023-01-29T16:16:49.165Z,74.92
2023-01-29T16:19:31.806Z,74.82
2023-01-29T16:22:09.731Z,74.81
2023-01-29T16:24:48.848Z,74.86
2023-01-29T16:27:28.194Z,74.88
2023-01-29T16:30:03.695Z,74.80
2023-01-29T16:32:43.187Z,74.91
2023-01-29T16:35:21.952Z,74.80
2023-01-29T16:38:05.291Z,74.77
2023-01-29T16:41:03.786Z,74.76
2023-01-29T16:44:03.468Z,74.71
2023-01-29T16:46:48.229Z,74.62
2023-01-29T16:49:59.165Z,74.66
2023-01-29T16:52:39.489Z,74.71
2023-01-29T16:55:26.520Z,74.59
2023-01-29T16:58:14.803Z,74.67
2023-01-29T17:00:58.368Z,74.68
2023-01-29T17:03:38.017Z,74.74
2023-01-29T17:06:21.646Z,74.79
2023-01-29T17:09:00.521Z,75.20
2023-01-29T17:11:42.446Z,75.43
2023-01-29T17:14:26.545Z,75.37
2023-01-29T17:17:09.094Z,75.65
2023-01-29T17:19:45.001Z,75.83
2023-01-29T17:22:23.186Z,76.06
2023-01-29T17:25:01.252Z,76.07
2023-01-29T17:27:44.510Z,76.04
2023-01-29T17:30:24.277Z,76.06
2023-01-29T17:33:11.770Z,75.98
2023-01-29T17:35:49.313Z,76.03
2023-01-29T17:38:31.433Z,76.03
2023-01-29T17:41:17.636Z,76.14
2023-01-29T17:43:57.901Z,76.23
2023-01-29T17:46:37.216Z,76.18
2023-01-29T17:49:28.749Z,76.15
2023-01-29T17:52:10.951Z,76.18
2023-01-29T17:54:46.722Z,76.37
2023-01-29T17:57:23.213Z,76.44
2023-01-29T18:00:14.364Z,76.55
2023-01-29T18:03:00.988Z,76.57
2023-01-29T18:05:43.750Z,76.55
2023-01-29T18:08:33.559Z,76.56
2023-01-29T18:11:14.830Z,76.49
2023-01-29T18:13:53.516Z,76.67
2023-01-29T18:16:38.763Z,76.76
2023-01-29T18:19:22.152Z,76.66
2023-01-29T18:21:59.319Z,76.69
2023-01-29T18:24:36.612Z,76.82
2023-01-29T18:27:13.068Z,76.92
2023-01-29T18:29:54.324Z,76.80
2023-01-29T18:32:30.939Z,77.00
2023-01-29T18:35:11.472Z,76.84
2023-01-29T18:37:50.359Z,76.69
2023-01-29T18:40:30.407Z,76.86
2023-01-29T18:43:13.307Z,76.91
2023-01-29T18:45:52.742Z,76.76
2023-01-29T18:48:31.949Z,76.88
2023-01-29T18:51:10.593Z,77.03
2023-01-29T18:53:51.996Z,76.93
2023-01-29T18:56:31.327Z,76.88
2023-01-29T18:59:06.807Z,76.66
2023-01-29T19:01:47.576Z,76.45
2023-01-29T19:04:25.191Z,76.45
2023-01-29T19:07:02.039Z,76.50
2023-01-29T19:09:47.522Z,76.30
2023-01-29T19:12:25.667Z,76.24
2023-01-29T19:15:06.170Z,76.27
2023-01-29T19:17:46.585Z,76.17
2023-01-29T19:20:28.143Z,76.04
2023-01-29T19:23:04.996Z,75.97
2023-01-29T19:25:45.891Z,75.91
2023-01-29T19:28:26.229Z,75.78
2023-01-29T19:31:08.222Z,75.66
2023-01-29T19:33:48.237Z,75.63
2023-01-29T19:36:31.142Z,75.67
2023-01-29T19:39:17.556Z,75.68
2023-01-29T19:41:54.409Z,76.18
2023-01-29T19:44:31.704Z,76.55
2023-01-29T19:47:08.828Z,76.66
2023-01-29T19:49:48.870Z,76.55
2023-01-29T19:52:50.894Z,76.61
2023-01-29T19:55:30.831Z,76.63
2023-01-29T19:58:12.822Z,76.44
2023-01-29T20:01:00.574Z,76.29
2023-01-29T20:03:39.073Z,76.17
2023-01-29T20:06:16.579Z,76.08
2023-01-29T20:08:53.661Z,76.06
2023-01-29T20:11:38.189Z,76.05
2023-01-29T20:14:22.619Z,76.13
2023-01-29T20:17:01.631Z,75.97
2023-01-29T20:19:39.140Z,76.19
2023-01-29T20:22:17.788Z,75.98
2023-01-29T20:24:56.835Z,76.05
2023-01-29T20:27:41.238Z,76.13
2023-01-29T20:30:19.750Z,76.04
2023-01-29T20:32:58.509Z,76.10
2023-01-29T20:35:43.097Z,76.08
2023-01-29T20:38:26.981Z,75.98
2023-01-29T20:41:10.279Z,76.16
2023-01-29T20:43:51.452Z,75.92
2023-01-29T20:46:29.783Z,75.90
2023-01-29T20:49:07.878Z,75.97
2023-01-29T20:51:45.865Z,75.98
2023-01-29T20:54:26.149Z,75.91
2023-01-29T20:57:02.221Z,75.99
2023-01-29T20:59:39.479Z,75.91
2023-01-29T21:02:19.420Z,75.81
2023-01-29T21:04:55.725Z,75.85
2023-01-29T21:07:32.032Z,75.83
2023-01-29T21:10:12.358Z,75.93
2023-01-29T21:13:03.394Z,75.99
2023-01-29T21:15:41.342Z,76.08
2023-01-29T21:18:19.580Z,76.00
2023-01-29T21:20:56.330Z,76.10
2023-01-29T21:23:33.140Z,76.37
2023-01-29T21:26:10.444Z,76.35
2023-01-29T21:28:47.582Z,76.18
2023-01-29T21:31:23.687Z,76.30
2023-01-29T21:33:59.238Z,76.20
2023-01-29T21:36:34.262Z,76.20
2023-01-29T21:39:18.416Z,76.16
2023-01-29T21:42:11.841Z,76.34
2023-01-29T21:44:46.956Z,76.20
2023-01-29T21:47:22.821Z,76.14
2023-01-29T21:49:57.234Z,76.00
2023-01-29T21:52:31.753Z,75.93
2023-01-29T21:55:06.355Z,75.96
2023-01-29T21:57:43.206Z,76.03
2023-01-29T22:00:19.409Z,76.13
2023-01-29T22:02:53.924Z,76.13
2023-01-29T22:05:29.573Z,76.28
2023-01-29T22:08:05.396Z,76.43
2023-01-29T22:10:39.516Z,76.38
2023-01-29T22:13:14.770Z,76.31
2023-01-29T22:15:48.610Z,76.28
2023-01-29T22:18:22.282Z,76.17
2023-01-29T22:20:58.381Z,76.14
2023-01-29T22:23:32.867Z,76.29
2023-01-29T22:26:10.468Z,76.31
2023-01-29T22:28:44.627Z,76.28
2023-01-29T22:31:18.258Z,76.44
2023-01-29T22:33:53.625Z,76.60
2023-01-29T22:36:27.859Z,76.86
2023-01-29T22:39:01.601Z,77.27
2023-01-29T22:41:35.174Z,77.53
2023-01-29T22:44:10.451Z,77.91
2023-01-29T22:46:44.420Z,78.03
2023-01-29T22:49:17.929Z,78.23
2023-01-29T22:52:10.449Z,78.22
2023-01-29T22:54:45.830Z,78.10
2023-01-29T22:57:20.138Z,78.09
2023-01-29T22:59:55.856Z,77.96
2023-01-29T23:02:29.638Z,78.05
2023-01-29T23:05:04.119Z,78.01
2023-01-29T23:07:37.884Z,78.07
2023-01-29T23:10:15.335Z,78.01
2023-01-29T23:12:49.447Z,77.91
2023-01-29T23:15:23.157Z,77.84
2023-01-29T23:17:56.818Z,77.92
2023-01-29T23:20:30.871Z,77.83
2023-01-29T23:23:04.775Z,77.88
2023-01-29T23:25:55.846Z,77.82
2023-01-29T23:28:29.742Z,77.72
2023-01-29T23:31:03.697Z,77.51
2023-01-29T23:33:37.521Z,77.59
2023-01-29T23:36:12.036Z,77.54
2023-01-29T23:38:45.670Z,77.42
2023-01-29T23:41:19.229Z,77.42
2023-01-29T23:43:53.078Z,77.36
2023-01-29T23:46:27.251Z,77.17
2023-01-29T23:49:01.552Z,77.15
2023-01-29T23:51:35.687Z,77.30
2023-01-29T23:54:09.845Z,77.35
2023-01-29T23:56:43.928Z,77.40
2023-01-29T23:59:18.043Z,77.35
